sensor_id;sensor_type;location;lat;lon;timestamp;P1;durP1;ratioP1;P2;durP2;ratioP2
61391;SDS011;47261;52.892;5.738;2022-12-24T00:01:19;82.27;;;11.77;;
61391;SDS011;47261;52.892;5.738;2022-12-24T00:03:45;77.25;;;12.15;;
61391;SDS011;47261;52.892;5.738;2022-12-24T00:06:18;68.00;;;12.63;;
61391;SDS011;47261;52.892;5.738;2022-12-24T00:08:45;66.47;;;11.65;;
61391;SDS011;47261;52.892;5.738;2022-12-24T00:11:11;92.70;;;13.32;;
61391;SDS011;47261;52.892;5.738;2022-12-24T00:13:37;112.87;;;16.83;;
61391;SDS011;47261;52.892;5.738;2022-12-24T00:16:02;105.05;;;16.05;;
61391;SDS011;47261;52.892;5.738;2022-12-24T00:18:28;90.27;;;14.30;;
61391;SDS011;47261;52.892;5.738;2022-12-24T00:20:54;86.32;;;14.40;;
61391;SDS011;47261;52.892;5.738;2022-12-24T00:23:19;109.00;;;16.57;;
61391;SDS011;47261;52.892;5.738;2022-12-24T00:25:46;163.68;;;18.65;;
61391;SDS011;47261;52.892;5.738;2022-12-24T00:28:12;141.38;;;15.55;;
61391;SDS011;47261;52.892;5.738;2022-12-24T00:30:38;127.38;;;14.88;;
61391;SDS011;47261;52.892;5.738;2022-12-24T00:33:05;132.13;;;14.03;;
61391;SDS011;47261;52.892;5.738;2022-12-24T00:35:34;101.13;;;14.05;;
61391;SDS011;47261;52.892;5.738;2022-12-24T00:38:00;83.50;;;13.50;;
61391;SDS011;47261;52.892;5.738;2022-12-24T00:40:28;84.80;;;14.80;;
61391;SDS011;47261;52.892;5.738;2022-12-24T00:42:54;91.05;;;13.13;;
61391;SDS011;47261;52.892;5.738;2022-12-24T00:45:20;24.80;;;6.13;;
61391;SDS011;47261;52.892;5.738;2022-12-24T00:47:46;90.93;;;14.20;;
61391;SDS011;47261;52.892;5.738;2022-12-24T00:50:11;76.70;;;11.33;;
61391;SDS011;47261;52.892;5.738;2022-12-24T00:52:37;64.30;;;11.13;;
61391;SDS011;47261;52.892;5.738;2022-12-24T00:55:03;54.28;;;11.00;;
61391;SDS011;47261;52.892;5.738;2022-12-24T00:57:29;49.63;;;9.20;;
61391;SDS011;47261;52.892;5.738;2022-12-24T00:59:54;64.13;;;12.37;;
61391;SDS011;47261;52.892;5.738;2022-12-24T01:02:20;59.73;;;11.23;;
61391;SDS011;47261;52.892;5.738;2022-12-24T01:04:46;21.25;;;6.45;;
61391;SDS011;47261;52.892;5.738;2022-12-24T01:07:30;25.40;;;5.82;;
61391;SDS011;47261;52.892;5.738;2022-12-24T01:09:55;14.53;;;4.40;;
61391;SDS011;47261;52.892;5.738;2022-12-24T01:12:21;28.00;;;6.28;;
61391;SDS011;47261;52.892;5.738;2022-12-24T01:14:47;14.00;;;4.37;;
61391;SDS011;47261;52.892;5.738;2022-12-24T01:17:13;20.92;;;4.82;;
61391;SDS011;47261;52.892;5.738;2022-12-24T01:19:38;27.63;;;5.93;;
61391;SDS011;47261;52.892;5.738;2022-12-24T01:22:04;28.38;;;6.53;;
61391;SDS011;47261;52.892;5.738;2022-12-24T01:24:30;27.77;;;7.37;;
61391;SDS011;47261;52.892;5.738;2022-12-24T01:26:55;34.25;;;8.45;;
61391;SDS011;47261;52.892;5.738;2022-12-24T01:29:21;26.10;;;5.73;;
61391;SDS011;47261;52.892;5.738;2022-12-24T01:31:46;14.80;;;4.83;;
61391;SDS011;47261;52.892;5.738;2022-12-24T01:34:12;7.68;;;2.42;;
61391;SDS011;47261;52.892;5.738;2022-12-24T01:36:38;9.53;;;3.83;;
61391;SDS011;47261;52.892;5.738;2022-12-24T01:39:03;12.40;;;4.57;;
61391;SDS011;47261;52.892;5.738;2022-12-24T01:41:29;12.83;;;4.60;;
61391;SDS011;47261;52.892;5.738;2022-12-24T01:46:56;28.15;;;8.32;;
61391;SDS011;47261;52.892;5.738;2022-12-24T01:49:39;39.65;;;10.02;;
61391;SDS011;47261;52.892;5.738;2022-12-24T01:52:14;36.93;;;9.63;;
61391;SDS011;47261;52.892;5.738;2022-12-24T01:54:56;35.08;;;8.40;;
61391;SDS011;47261;52.892;5.738;2022-12-24T01:59:56;46.30;;;7.95;;
61391;SDS011;47261;52.892;5.738;2022-12-24T02:02:26;33.70;;;4.85;;
61391;SDS011;47261;52.892;5.738;2022-12-24T02:05:04;30.13;;;4.40;;
61391;SDS011;47261;52.892;5.738;2022-12-24T02:07:39;39.28;;;3.40;;
61391;SDS011;47261;52.892;5.738;2022-12-24T02:10:07;31.55;;;2.83;;
61391;SDS011;47261;52.892;5.738;2022-12-24T02:12:35;39.10;;;3.65;;
61391;SDS011;47261;52.892;5.738;2022-12-24T02:15:04;43.20;;;3.58;;
61391;SDS011;47261;52.892;5.738;2022-12-24T02:23:03;22.77;;;2.60;;
61391;SDS011;47261;52.892;5.738;2022-12-24T02:31:07;32.17;;;2.73;;
61391;SDS011;47261;52.892;5.738;2022-12-24T02:33:52;41.75;;;3.83;;
61391;SDS011;47261;52.892;5.738;2022-12-24T02:36:30;20.30;;;2.80;;
61391;SDS011;47261;52.892;5.738;2022-12-24T02:39:05;33.80;;;3.95;;
61391;SDS011;47261;52.892;5.738;2022-12-24T02:41:37;31.50;;;2.70;;
61391;SDS011;47261;52.892;5.738;2022-12-24T02:44:26;37.07;;;3.60;;
61391;SDS011;47261;52.892;5.738;2022-12-24T02:46:54;30.00;;;3.45;;
61391;SDS011;47261;52.892;5.738;2022-12-24T02:49:23;26.60;;;2.83;;
61391;SDS011;47261;52.892;5.738;2022-12-24T02:51:48;39.45;;;4.15;;
61391;SDS011;47261;52.892;5.738;2022-12-24T02:54:14;33.00;;;3.07;;
61391;SDS011;47261;52.892;5.738;2022-12-24T02:59:46;36.83;;;4.65;;
61391;SDS011;47261;52.892;5.738;2022-12-24T03:02:25;49.50;;;4.68;;
61391;SDS011;47261;52.892;5.738;2022-12-24T03:07:36;30.38;;;2.70;;
61391;SDS011;47261;52.892;5.738;2022-12-24T03:12:49;28.48;;;3.80;;
61391;SDS011;47261;52.892;5.738;2022-12-24T03:15:19;28.80;;;3.97;;
61391;SDS011;47261;52.892;5.738;2022-12-24T03:17:47;35.90;;;3.40;;
61391;SDS011;47261;52.892;5.738;2022-12-24T03:20:17;18.77;;;2.63;;
61391;SDS011;47261;52.892;5.738;2022-12-24T03:22:47;28.60;;;2.95;;
61391;SDS011;47261;52.892;5.738;2022-12-24T03:25:13;28.42;;;2.45;;
61391;SDS011;47261;52.892;5.738;2022-12-24T03:27:38;31.07;;;3.03;;
61391;SDS011;47261;52.892;5.738;2022-12-24T03:30:07;31.13;;;3.50;;
61391;SDS011;47261;52.892;5.738;2022-12-24T03:32:35;21.88;;;2.30;;
61391;SDS011;47261;52.892;5.738;2022-12-24T03:35:01;19.67;;;2.77;;
61391;SDS011;47261;52.892;5.738;2022-12-24T03:37:27;13.20;;;1.67;;
61391;SDS011;47261;52.892;5.738;2022-12-24T03:39:52;17.27;;;2.37;;
61391;SDS011;47261;52.892;5.738;2022-12-24T03:42:18;21.27;;;2.40;;
61391;SDS011;47261;52.892;5.738;2022-12-24T03:44:44;18.73;;;1.77;;
61391;SDS011;47261;52.892;5.738;2022-12-24T03:47:09;29.55;;;3.60;;
61391;SDS011;47261;52.892;5.738;2022-12-24T03:49:35;24.97;;;2.87;;
61391;SDS011;47261;52.892;5.738;2022-12-24T03:52:00;30.67;;;3.00;;
61391;SDS011;47261;52.892;5.738;2022-12-24T03:54:26;44.83;;;3.80;;
61391;SDS011;47261;52.892;5.738;2022-12-24T03:56:52;18.80;;;1.73;;
61391;SDS011;47261;52.892;5.738;2022-12-24T03:59:17;14.68;;;1.95;;
61391;SDS011;47261;52.892;5.738;2022-12-24T04:01:43;27.60;;;2.50;;
61391;SDS011;47261;52.892;5.738;2022-12-24T04:04:09;17.23;;;2.65;;
61391;SDS011;47261;52.892;5.738;2022-12-24T04:06:34;17.13;;;1.73;;
61391;SDS011;47261;52.892;5.738;2022-12-24T04:09:00;19.07;;;2.80;;
61391;SDS011;47261;52.892;5.738;2022-12-24T04:11:29;24.05;;;3.20;;
61391;SDS011;47261;52.892;5.738;2022-12-24T04:13:55;28.80;;;2.72;;
61391;SDS011;47261;52.892;5.738;2022-12-24T04:16:21;21.90;;;2.50;;
61391;SDS011;47261;52.892;5.738;2022-12-24T04:18:47;37.78;;;3.25;;
61391;SDS011;47261;52.892;5.738;2022-12-24T04:21:13;23.10;;;2.40;;
61391;SDS011;47261;52.892;5.738;2022-12-24T04:23:39;18.95;;;2.42;;
61391;SDS011;47261;52.892;5.738;2022-12-24T04:26:07;31.20;;;4.38;;
61391;SDS011;47261;52.892;5.738;2022-12-24T04:28:35;23.87;;;2.23;;
61391;SDS011;47261;52.892;5.738;2022-12-24T04:31:02;37.28;;;3.58;;
61391;SDS011;47261;52.892;5.738;2022-12-24T04:33:30;34.08;;;2.65;;
61391;SDS011;47261;52.892;5.738;2022-12-24T04:35:56;28.42;;;3.33;;
61391;SDS011;47261;52.892;5.738;2022-12-24T04:38:22;26.87;;;2.73;;
61391;SDS011;47261;52.892;5.738;2022-12-24T04:40:48;19.63;;;2.65;;
61391;SDS011;47261;52.892;5.738;2022-12-24T04:43:23;19.13;;;1.95;;
61391;SDS011;47261;52.892;5.738;2022-12-24T04:45:48;14.07;;;2.30;;
61391;SDS011;47261;52.892;5.738;2022-12-24T04:48:14;23.23;;;2.83;;
61391;SDS011;47261;52.892;5.738;2022-12-24T04:50:40;43.85;;;3.55;;
61391;SDS011;47261;52.892;5.738;2022-12-24T04:53:05;23.43;;;3.43;;
61391;SDS011;47261;52.892;5.738;2022-12-24T04:55:31;29.75;;;2.85;;
61391;SDS011;47261;52.892;5.738;2022-12-24T04:57:56;29.83;;;2.90;;
61391;SDS011;47261;52.892;5.738;2022-12-24T05:00:22;28.77;;;2.60;;
61391;SDS011;47261;52.892;5.738;2022-12-24T05:02:48;25.67;;;3.28;;
61391;SDS011;47261;52.892;5.738;2022-12-24T05:05:13;32.00;;;2.30;;
61391;SDS011;47261;52.892;5.738;2022-12-24T05:07:39;29.73;;;3.28;;
61391;SDS011;47261;52.892;5.738;2022-12-24T05:10:05;24.17;;;3.00;;
61391;SDS011;47261;52.892;5.738;2022-12-24T05:12:31;26.23;;;2.40;;
61391;SDS011;47261;52.892;5.738;2022-12-24T05:14:56;13.70;;;1.97;;
61391;SDS011;47261;52.892;5.738;2022-12-24T05:17:22;38.80;;;3.72;;
61391;SDS011;47261;52.892;5.738;2022-12-24T05:19:48;14.23;;;1.77;;
61391;SDS011;47261;52.892;5.738;2022-12-24T05:22:13;14.33;;;1.77;;
61391;SDS011;47261;52.892;5.738;2022-12-24T05:24:57;32.40;;;4.00;;
61391;SDS011;47261;52.892;5.738;2022-12-24T05:27:41;28.10;;;1.85;;
61391;SDS011;47261;52.892;5.738;2022-12-24T05:30:07;36.10;;;3.40;;
61391;SDS011;47261;52.892;5.738;2022-12-24T05:32:33;17.53;;;2.17;;
61391;SDS011;47261;52.892;5.738;2022-12-24T05:34:59;36.50;;;3.13;;
61391;SDS011;47261;52.892;5.738;2022-12-24T05:37:24;28.80;;;3.10;;
61391;SDS011;47261;52.892;5.738;2022-12-24T05:39:50;22.03;;;2.43;;
61391;SDS011;47261;52.892;5.738;2022-12-24T05:42:15;28.60;;;2.73;;
61391;SDS011;47261;52.892;5.738;2022-12-24T05:44:41;27.63;;;2.70;;
61391;SDS011;47261;52.892;5.738;2022-12-24T05:47:07;38.47;;;2.90;;
61391;SDS011;47261;52.892;5.738;2022-12-24T05:49:32;36.33;;;2.73;;
61391;SDS011;47261;52.892;5.738;2022-12-24T05:51:58;18.23;;;2.28;;
61391;SDS011;47261;52.892;5.738;2022-12-24T05:54:23;39.00;;;3.90;;
61391;SDS011;47261;52.892;5.738;2022-12-24T05:56:49;29.63;;;2.63;;
61391;SDS011;47261;52.892;5.738;2022-12-24T05:59:15;18.02;;;2.38;;
61391;SDS011;47261;52.892;5.738;2022-12-24T06:01:40;24.17;;;3.03;;
61391;SDS011;47261;52.892;5.738;2022-12-24T06:04:11;26.45;;;1.95;;
61391;SDS011;47261;52.892;5.738;2022-12-24T06:06:36;25.43;;;2.50;;
61391;SDS011;47261;52.892;5.738;2022-12-24T06:09:02;25.45;;;2.67;;
61391;SDS011;47261;52.892;5.738;2022-12-24T06:11:28;25.87;;;2.43;;
61391;SDS011;47261;52.892;5.738;2022-12-24T06:13:54;57.23;;;4.70;;
61391;SDS011;47261;52.892;5.738;2022-12-24T06:16:21;41.05;;;3.22;;
61391;SDS011;47261;52.892;5.738;2022-12-24T06:18:47;47.00;;;3.72;;
61391;SDS011;47261;52.892;5.738;2022-12-24T06:21:13;48.27;;;4.20;;
61391;SDS011;47261;52.892;5.738;2022-12-24T06:23:40;47.08;;;4.00;;
61391;SDS011;47261;52.892;5.738;2022-12-24T06:26:07;54.38;;;4.80;;
61391;SDS011;47261;52.892;5.738;2022-12-24T06:28:34;51.80;;;4.45;;
61391;SDS011;47261;52.892;5.738;2022-12-24T06:31:01;57.63;;;3.55;;
61391;SDS011;47261;52.892;5.738;2022-12-24T06:33:28;53.17;;;4.73;;
61391;SDS011;47261;52.892;5.738;2022-12-24T06:35:54;51.45;;;3.35;;
61391;SDS011;47261;52.892;5.738;2022-12-24T06:38:20;49.70;;;4.45;;
61391;SDS011;47261;52.892;5.738;2022-12-24T06:40:46;40.47;;;3.58;;
61391;SDS011;47261;52.892;5.738;2022-12-24T06:43:12;42.30;;;3.37;;
61391;SDS011;47261;52.892;5.738;2022-12-24T06:45:39;51.05;;;3.88;;
61391;SDS011;47261;52.892;5.738;2022-12-24T06:48:09;16.83;;;2.13;;
61391;SDS011;47261;52.892;5.738;2022-12-24T06:50:34;30.83;;;2.80;;
61391;SDS011;47261;52.892;5.738;2022-12-24T06:53:00;23.50;;;2.60;;
61391;SDS011;47261;52.892;5.738;2022-12-24T06:55:26;22.87;;;2.77;;
61391;SDS011;47261;52.892;5.738;2022-12-24T06:57:52;20.50;;;2.07;;
61391;SDS011;47261;52.892;5.738;2022-12-24T07:00:18;16.70;;;2.47;;
61391;SDS011;47261;52.892;5.738;2022-12-24T07:02:45;35.23;;;2.43;;
61391;SDS011;47261;52.892;5.738;2022-12-24T07:05:11;18.52;;;1.65;;
61391;SDS011;47261;52.892;5.738;2022-12-24T07:07:39;26.13;;;3.30;;
61391;SDS011;47261;52.892;5.738;2022-12-24T07:10:06;31.48;;;3.20;;
61391;SDS011;47261;52.892;5.738;2022-12-24T07:12:33;33.00;;;6.00;;
61391;SDS011;47261;52.892;5.738;2022-12-24T07:14:59;27.70;;;4.30;;
61391;SDS011;47261;52.892;5.738;2022-12-24T07:17:24;33.80;;;3.53;;
61391;SDS011;47261;52.892;5.738;2022-12-24T07:19:50;24.60;;;2.50;;
61391;SDS011;47261;52.892;5.738;2022-12-24T07:22:16;17.27;;;2.00;;
61391;SDS011;47261;52.892;5.738;2022-12-24T07:24:41;25.92;;;3.20;;
61391;SDS011;47261;52.892;5.738;2022-12-24T07:27:07;25.00;;;2.83;;
61391;SDS011;47261;52.892;5.738;2022-12-24T07:29:33;31.58;;;2.55;;
61391;SDS011;47261;52.892;5.738;2022-12-24T07:31:59;24.40;;;3.00;;
61391;SDS011;47261;52.892;5.738;2022-12-24T07:34:25;27.85;;;3.60;;
61391;SDS011;47261;52.892;5.738;2022-12-24T07:36:50;40.85;;;4.63;;
61391;SDS011;47261;52.892;5.738;2022-12-24T07:39:16;26.17;;;2.37;;
61391;SDS011;47261;52.892;5.738;2022-12-24T07:41:42;34.30;;;3.65;;
61391;SDS011;47261;52.892;5.738;2022-12-24T07:44:10;49.07;;;4.00;;
61391;SDS011;47261;52.892;5.738;2022-12-24T07:46:39;45.45;;;3.75;;
61391;SDS011;47261;52.892;5.738;2022-12-24T07:49:05;21.77;;;2.47;;
61391;SDS011;47261;52.892;5.738;2022-12-24T07:51:31;14.80;;;1.80;;
61391;SDS011;47261;52.892;5.738;2022-12-24T07:53:56;37.50;;;3.80;;
61391;SDS011;47261;52.892;5.738;2022-12-24T07:56:22;50.10;;;3.93;;
61391;SDS011;47261;52.892;5.738;2022-12-24T07:58:49;24.05;;;2.40;;
61391;SDS011;47261;52.892;5.738;2022-12-24T08:01:15;18.40;;;2.47;;
61391;SDS011;47261;52.892;5.738;2022-12-24T08:03:41;27.92;;;2.60;;
61391;SDS011;47261;52.892;5.738;2022-12-24T08:06:06;20.83;;;2.93;;
61391;SDS011;47261;52.892;5.738;2022-12-24T08:08:32;32.08;;;3.63;;
61391;SDS011;47261;52.892;5.738;2022-12-24T08:11:01;20.30;;;2.53;;
61391;SDS011;47261;52.892;5.738;2022-12-24T08:13:28;16.23;;;2.03;;
61391;SDS011;47261;52.892;5.738;2022-12-24T08:15:54;35.70;;;3.78;;
61391;SDS011;47261;52.892;5.738;2022-12-24T08:18:20;23.60;;;3.27;;
61391;SDS011;47261;52.892;5.738;2022-12-24T08:20:45;23.95;;;2.28;;
61391;SDS011;47261;52.892;5.738;2022-12-24T08:23:11;35.87;;;3.07;;
61391;SDS011;47261;52.892;5.738;2022-12-24T08:25:40;36.92;;;3.28;;
61391;SDS011;47261;52.892;5.738;2022-12-24T08:28:08;41.17;;;2.90;;
61391;SDS011;47261;52.892;5.738;2022-12-24T08:30:34;27.10;;;2.28;;
61391;SDS011;47261;52.892;5.738;2022-12-24T08:33:00;19.50;;;2.37;;
61391;SDS011;47261;52.892;5.738;2022-12-24T08:35:26;18.27;;;2.03;;
61391;SDS011;47261;52.892;5.738;2022-12-24T08:37:51;42.40;;;3.95;;
61391;SDS011;47261;52.892;5.738;2022-12-24T08:40:17;46.53;;;3.37;;
61391;SDS011;47261;52.892;5.738;2022-12-24T08:42:43;16.42;;;2.33;;
61391;SDS011;47261;52.892;5.738;2022-12-24T08:45:09;28.27;;;3.37;;
61391;SDS011;47261;52.892;5.738;2022-12-24T08:47:35;36.15;;;4.07;;
61391;SDS011;47261;52.892;5.738;2022-12-24T08:50:02;24.73;;;2.60;;
61391;SDS011;47261;52.892;5.738;2022-12-24T08:52:28;43.60;;;3.28;;
61391;SDS011;47261;52.892;5.738;2022-12-24T08:54:54;27.03;;;2.57;;
61391;SDS011;47261;52.892;5.738;2022-12-24T08:57:20;27.00;;;2.70;;
61391;SDS011;47261;52.892;5.738;2022-12-24T08:59:45;38.67;;;3.00;;
61391;SDS011;47261;52.892;5.738;2022-12-24T09:02:11;26.40;;;3.67;;
61391;SDS011;47261;52.892;5.738;2022-12-24T09:04:37;30.27;;;2.65;;
61391;SDS011;47261;52.892;5.738;2022-12-24T09:07:06;41.20;;;4.38;;
61391;SDS011;47261;52.892;5.738;2022-12-24T09:09:33;51.73;;;4.03;;
61391;SDS011;47261;52.892;5.738;2022-12-24T09:11:58;30.83;;;3.38;;
61391;SDS011;47261;52.892;5.738;2022-12-24T09:14:24;32.60;;;2.93;;
61391;SDS011;47261;52.892;5.738;2022-12-24T09:16:50;18.90;;;2.15;;
61391;SDS011;47261;52.892;5.738;2022-12-24T09:19:15;29.83;;;2.60;;
61391;SDS011;47261;52.892;5.738;2022-12-24T09:21:41;34.33;;;2.72;;
61391;SDS011;47261;52.892;5.738;2022-12-24T09:24:07;54.57;;;4.13;;
61391;SDS011;47261;52.892;5.738;2022-12-24T09:26:32;41.40;;;3.40;;
61391;SDS011;47261;52.892;5.738;2022-12-24T09:29:00;26.55;;;2.90;;
61391;SDS011;47261;52.892;5.738;2022-12-24T09:31:26;27.10;;;3.70;;
61391;SDS011;47261;52.892;5.738;2022-12-24T09:33:52;41.03;;;3.58;;
61391;SDS011;47261;52.892;5.738;2022-12-24T09:36:18;19.45;;;2.40;;
61391;SDS011;47261;52.892;5.738;2022-12-24T09:38:44;18.80;;;2.50;;
61391;SDS011;47261;52.892;5.738;2022-12-24T09:43:53;19.40;;;2.63;;
61391;SDS011;47261;52.892;5.738;2022-12-24T09:46:25;39.80;;;2.92;;
61391;SDS011;47261;52.892;5.738;2022-12-24T09:48:56;35.22;;;3.97;;
61391;SDS011;47261;52.892;5.738;2022-12-24T09:51:30;25.73;;;3.13;;
61391;SDS011;47261;52.892;5.738;2022-12-24T09:54:00;30.75;;;3.75;;
61391;SDS011;47261;52.892;5.738;2022-12-24T09:56:31;25.00;;;2.85;;
61391;SDS011;47261;52.892;5.738;2022-12-24T09:59:02;30.27;;;2.97;;
61391;SDS011;47261;52.892;5.738;2022-12-24T10:01:30;10.40;;;1.83;;
61391;SDS011;47261;52.892;5.738;2022-12-24T10:03:57;19.00;;;2.17;;
61391;SDS011;47261;52.892;5.738;2022-12-24T10:06:35;19.67;;;2.00;;
61391;SDS011;47261;52.892;5.738;2022-12-24T10:09:36;22.65;;;2.55;;
61391;SDS011;47261;52.892;5.738;2022-12-24T10:28:57;24.40;;;2.40;;
61391;SDS011;47261;52.892;5.738;2022-12-24T10:31:24;23.38;;;2.22;;
61391;SDS011;47261;52.892;5.738;2022-12-24T10:33:54;18.67;;;2.67;;
61391;SDS011;47261;52.892;5.738;2022-12-24T10:36:29;27.30;;;2.60;;
61391;SDS011;47261;52.892;5.738;2022-12-24T10:38:56;16.13;;;1.63;;
61391;SDS011;47261;52.892;5.738;2022-12-24T10:41:23;18.27;;;2.03;;
61391;SDS011;47261;52.892;5.738;2022-12-24T10:43:51;20.27;;;1.30;;
61391;SDS011;47261;52.892;5.738;2022-12-24T10:46:19;15.55;;;2.00;;
61391;SDS011;47261;52.892;5.738;2022-12-24T10:48:50;14.98;;;1.38;;
61391;SDS011;47261;52.892;5.738;2022-12-24T10:54:18;14.38;;;1.45;;
61391;SDS011;47261;52.892;5.738;2022-12-24T10:56:49;16.92;;;2.10;;
61391;SDS011;47261;52.892;5.738;2022-12-24T11:02:03;25.48;;;2.80;;
61391;SDS011;47261;52.892;5.738;2022-12-24T11:04:54;33.23;;;3.83;;
61391;SDS011;47261;52.892;5.738;2022-12-24T11:07:21;23.40;;;2.40;;
61391;SDS011;47261;52.892;5.738;2022-12-24T11:09:57;10.75;;;1.52;;
61391;SDS011;47261;52.892;5.738;2022-12-24T11:12:28;31.38;;;3.30;;
61391;SDS011;47261;52.892;5.738;2022-12-24T11:15:21;20.63;;;3.07;;
61391;SDS011;47261;52.892;5.738;2022-12-24T11:18:03;13.30;;;2.10;;
61391;SDS011;47261;52.892;5.738;2022-12-24T11:20:36;16.30;;;1.80;;
61391;SDS011;47261;52.892;5.738;2022-12-24T11:23:02;19.20;;;2.70;;
61391;SDS011;47261;52.892;5.738;2022-12-24T11:25:29;19.60;;;2.50;;
61391;SDS011;47261;52.892;5.738;2022-12-24T11:27:57;18.98;;;2.90;;
61391;SDS011;47261;52.892;5.738;2022-12-24T11:30:36;21.05;;;2.17;;
61391;SDS011;47261;52.892;5.738;2022-12-24T11:33:14;17.77;;;2.38;;
61391;SDS011;47261;52.892;5.738;2022-12-24T11:35:45;21.83;;;2.45;;
61391;SDS011;47261;52.892;5.738;2022-12-24T11:38:20;15.27;;;1.80;;
61391;SDS011;47261;52.892;5.738;2022-12-24T11:40:49;21.45;;;3.25;;
61391;SDS011;47261;52.892;5.738;2022-12-24T11:43:22;19.23;;;3.17;;
61391;SDS011;47261;52.892;5.738;2022-12-24T11:45:51;12.23;;;2.20;;
61391;SDS011;47261;52.892;5.738;2022-12-24T11:50:56;25.85;;;3.15;;
61391;SDS011;47261;52.892;5.738;2022-12-24T11:56:39;14.93;;;1.80;;
61391;SDS011;47261;52.892;5.738;2022-12-24T12:04:26;31.88;;;2.63;;
61391;SDS011;47261;52.892;5.738;2022-12-24T12:09:56;14.25;;;1.90;;
61391;SDS011;47261;52.892;5.738;2022-12-24T12:12:43;22.27;;;2.50;;
61391;SDS011;47261;52.892;5.738;2022-12-24T12:17:49;18.48;;;2.33;;
61391;SDS011;47261;52.892;5.738;2022-12-24T12:20:22;27.88;;;2.63;;
61391;SDS011;47261;52.892;5.738;2022-12-24T12:23:15;30.77;;;2.55;;
61391;SDS011;47261;52.892;5.738;2022-12-24T12:34:10;27.70;;;2.75;;
61391;SDS011;47261;52.892;5.738;2022-12-24T12:36:45;20.88;;;1.85;;
61391;SDS011;47261;52.892;5.738;2022-12-24T12:39:21;26.35;;;2.08;;
61391;SDS011;47261;52.892;5.738;2022-12-24T12:50:28;14.63;;;1.70;;
61391;SDS011;47261;52.892;5.738;2022-12-24T13:01:45;25.25;;;1.90;;
61391;SDS011;47261;52.892;5.738;2022-12-24T13:07:45;18.77;;;2.38;;
61391;SDS011;47261;52.892;5.738;2022-12-24T13:18:45;10.60;;;1.30;;
61391;SDS011;47261;52.892;5.738;2022-12-24T13:21:22;10.32;;;1.15;;
61391;SDS011;47261;52.892;5.738;2022-12-24T13:23:50;12.97;;;1.60;;
61391;SDS011;47261;52.892;5.738;2022-12-24T13:26:29;18.20;;;1.90;;
61391;SDS011;47261;52.892;5.738;2022-12-24T13:28:55;13.48;;;1.35;;
61391;SDS011;47261;52.892;5.738;2022-12-24T13:37:34;15.38;;;1.98;;
61391;SDS011;47261;52.892;5.738;2022-12-24T13:50:35;18.70;;;1.92;;
61391;SDS011;47261;52.892;5.738;2022-12-24T13:53:02;12.23;;;1.10;;
61391;SDS011;47261;52.892;5.738;2022-12-24T13:55:53;14.05;;;2.25;;
61391;SDS011;47261;52.892;5.738;2022-12-24T13:58:27;8.63;;;1.10;;
61391;SDS011;47261;52.892;5.738;2022-12-24T14:00:56;15.00;;;2.27;;
61391;SDS011;47261;52.892;5.738;2022-12-24T14:03:27;18.50;;;2.38;;
61391;SDS011;47261;52.892;5.738;2022-12-24T14:05:57;15.30;;;1.10;;
61391;SDS011;47261;52.892;5.738;2022-12-24T14:08:31;18.90;;;1.33;;
61391;SDS011;47261;52.892;5.738;2022-12-24T14:11:14;10.50;;;1.40;;
61391;SDS011;47261;52.892;5.738;2022-12-24T14:16:31;19.33;;;1.60;;
61391;SDS011;47261;52.892;5.738;2022-12-24T14:21:45;14.50;;;1.33;;
61391;SDS011;47261;52.892;5.738;2022-12-24T14:24:21;14.93;;;0.90;;
61391;SDS011;47261;52.892;5.738;2022-12-24T14:26:56;20.88;;;1.42;;
61391;SDS011;47261;52.892;5.738;2022-12-24T14:31:56;17.27;;;1.70;;
61391;SDS011;47261;52.892;5.738;2022-12-24T14:34:23;12.77;;;1.00;;
61391;SDS011;47261;52.892;5.738;2022-12-24T14:36:50;12.48;;;0.95;;
61391;SDS011;47261;52.892;5.738;2022-12-24T14:42:00;18.73;;;2.13;;
61391;SDS011;47261;52.892;5.738;2022-12-24T14:53:25;23.33;;;2.22;;
61391;SDS011;47261;52.892;5.738;2022-12-24T14:56:17;14.97;;;1.67;;
61391;SDS011;47261;52.892;5.738;2022-12-24T14:58:44;25.13;;;1.50;;
61391;SDS011;47261;52.892;5.738;2022-12-24T15:01:19;18.23;;;1.55;;
61391;SDS011;47261;52.892;5.738;2022-12-24T15:03:59;25.50;;;1.92;;
61391;SDS011;47261;52.892;5.738;2022-12-24T15:06:25;14.13;;;1.08;;
61391;SDS011;47261;52.892;5.738;2022-12-24T15:08:51;15.30;;;1.40;;
61391;SDS011;47261;52.892;5.738;2022-12-24T15:11:18;17.13;;;1.65;;
61391;SDS011;47261;52.892;5.738;2022-12-24T15:13:47;16.73;;;2.17;;
61391;SDS011;47261;52.892;5.738;2022-12-24T15:16:19;18.63;;;1.42;;
61391;SDS011;47261;52.892;5.738;2022-12-24T15:18:56;20.17;;;2.45;;
61391;SDS011;47261;52.892;5.738;2022-12-24T15:21:33;16.07;;;1.40;;
61391;SDS011;47261;52.892;5.738;2022-12-24T15:24:01;22.52;;;1.60;;
61391;SDS011;47261;52.892;5.738;2022-12-24T15:26:29;13.00;;;1.13;;
61391;SDS011;47261;52.892;5.738;2022-12-24T15:28:58;9.55;;;1.50;;
61391;SDS011;47261;52.892;5.738;2022-12-24T15:31:25;9.95;;;1.30;;
61391;SDS011;47261;52.892;5.738;2022-12-24T15:33:53;11.00;;;1.10;;
61391;SDS011;47261;52.892;5.738;2022-12-24T15:36:25;22.48;;;2.00;;
61391;SDS011;47261;52.892;5.738;2022-12-24T15:39:05;9.27;;;1.20;;
61391;SDS011;47261;52.892;5.738;2022-12-24T15:41:38;15.98;;;1.40;;
61391;SDS011;47261;52.892;5.738;2022-12-24T15:44:26;17.00;;;1.55;;
61391;SDS011;47261;52.892;5.738;2022-12-24T15:47:03;11.07;;;1.43;;
61391;SDS011;47261;52.892;5.738;2022-12-24T15:49:32;12.18;;;1.10;;
61391;SDS011;47261;52.892;5.738;2022-12-24T15:52:06;28.33;;;2.80;;
61391;SDS011;47261;52.892;5.738;2022-12-24T15:54:33;25.33;;;2.05;;
61391;SDS011;47261;52.892;5.738;2022-12-24T15:57:10;17.13;;;1.25;;
61391;SDS011;47261;52.892;5.738;2022-12-24T15:59:59;24.13;;;2.10;;
61391;SDS011;47261;52.892;5.738;2022-12-24T16:02:37;20.55;;;1.98;;
61391;SDS011;47261;52.892;5.738;2022-12-24T16:08:21;31.38;;;2.72;;
61391;SDS011;47261;52.892;5.738;2022-12-24T16:10:52;32.22;;;3.90;;
61391;SDS011;47261;52.892;5.738;2022-12-24T16:13:31;26.67;;;3.27;;
61391;SDS011;47261;52.892;5.738;2022-12-24T16:16:01;30.10;;;4.03;;
61391;SDS011;47261;52.892;5.738;2022-12-24T16:18:36;17.92;;;2.00;;
61391;SDS011;47261;52.892;5.738;2022-12-24T16:21:06;15.60;;;2.33;;
61391;SDS011;47261;52.892;5.738;2022-12-24T16:23:45;5.68;;;1.23;;
61391;SDS011;47261;52.892;5.738;2022-12-24T16:26:12;21.40;;;3.30;;
61391;SDS011;47261;52.892;5.738;2022-12-24T16:28:38;12.52;;;1.70;;
61391;SDS011;47261;52.892;5.738;2022-12-24T16:31:03;12.93;;;1.40;;
61391;SDS011;47261;52.892;5.738;2022-12-24T16:33:29;15.88;;;1.33;;
61391;SDS011;47261;52.892;5.738;2022-12-24T16:35:55;31.20;;;2.60;;
61391;SDS011;47261;52.892;5.738;2022-12-24T16:38:21;40.00;;;4.57;;
61391;SDS011;47261;52.892;5.738;2022-12-24T16:40:47;37.22;;;6.13;;
61391;SDS011;47261;52.892;5.738;2022-12-24T16:43:13;23.73;;;5.68;;
61391;SDS011;47261;52.892;5.738;2022-12-24T16:46:01;15.55;;;2.42;;
61391;SDS011;47261;52.892;5.738;2022-12-24T16:48:29;17.85;;;1.55;;
61391;SDS011;47261;52.892;5.738;2022-12-24T16:50:55;21.17;;;2.27;;
61391;SDS011;47261;52.892;5.738;2022-12-24T16:53:21;12.68;;;1.80;;
61391;SDS011;47261;52.892;5.738;2022-12-24T16:55:47;20.10;;;2.22;;
61391;SDS011;47261;52.892;5.738;2022-12-24T16:58:15;16.90;;;2.93;;
61391;SDS011;47261;52.892;5.738;2022-12-24T17:00:42;11.00;;;1.17;;
61391;SDS011;47261;52.892;5.738;2022-12-24T17:03:08;20.33;;;1.58;;
61391;SDS011;47261;52.892;5.738;2022-12-24T17:05:39;26.00;;;2.45;;
61391;SDS011;47261;52.892;5.738;2022-12-24T17:08:05;28.95;;;1.98;;